createdAt,value
2019-02-19T00:01:20.225Z,75.17
2019-02-19T00:03:51.137Z,70.53
2019-02-19T00:06:22.171Z,73.07
2019-02-19T00:08:53.072Z,71.13
2019-02-19T00:11:24.009Z,65.27
2019-02-19T00:13:54.919Z,66.80
2019-02-19T00:16:25.860Z,65.20
2019-02-19T00:18:56.778Z,64.50
2019-02-19T00:21:27.739Z,64.50
2019-02-19T00:23:58.646Z,60.87
2019-02-19T00:26:29.588Z,67.13
2019-02-19T00:29:00.500Z,65.43
2019-02-19T00:31:31.449Z,62.60
2019-02-19T00:34:02.343Z,61.73
2019-02-19T00:36:33.314Z,58.83
2019-02-19T00:39:04.933Z,61.43
2019-02-19T00:41:35.872Z,62.13
2019-02-19T00:44:06.852Z,62.43
2019-02-19T00:46:37.784Z,66.23
2019-02-19T00:49:09.573Z,64.20
2019-02-19T00:51:40.557Z,65.13
2019-02-19T00:54:11.470Z,61.33
2019-02-19T00:56:42.429Z,61.40
2019-02-19T00:59:13.417Z,60.47
2019-02-19T01:01:44.946Z,59.13
2019-02-19T01:04:15.876Z,63.20
2019-02-19T01:06:46.838Z,61.67
2019-02-19T01:09:19.038Z,58.80
2019-02-19T01:11:49.997Z,58.90
2019-02-19T01:14:20.920Z,61.27
2019-02-19T01:16:51.857Z,59.23
2019-02-19T01:19:22.763Z,58.20
2019-02-19T01:21:53.737Z,62.50
2019-02-19T01:24:24.657Z,65.60
2019-02-19T01:26:55.675Z,62.73
2019-02-19T01:29:26.605Z,63.00
2019-02-19T01:31:57.559Z,63.37
2019-02-19T01:34:28.470Z,65.50
2019-02-19T01:36:59.439Z,64.23
2019-02-19T01:39:30.345Z,66.57
2019-02-19T01:42:01.286Z,69.47
2019-02-19T01:44:32.201Z,67.33
2019-02-19T01:47:03.147Z,66.40
2019-02-19T01:49:34.852Z,65.60
2019-02-19T01:52:05.803Z,64.73
2019-02-19T01:54:36.714Z,68.73
2019-02-19T01:57:07.661Z,66.30
2019-02-19T01:59:38.567Z,65.80
2019-02-19T02:02:09.517Z,71.00
2019-02-19T02:04:40.422Z,71.57
2019-02-19T02:07:11.396Z,67.67
2019-02-19T02:09:42.312Z,73.53
2019-02-19T02:12:13.275Z,72.87
2019-02-19T02:14:44.182Z,69.87
2019-02-19T02:17:15.126Z,68.10
2019-02-19T02:19:46.037Z,70.97
2019-02-19T02:22:17.022Z,67.40
2019-02-19T02:24:47.927Z,69.77
2019-02-19T02:27:18.953Z,66.13
2019-02-19T02:29:49.868Z,66.53
2019-02-19T02:32:20.809Z,64.53
2019-02-19T02:34:51.718Z,65.20
2019-02-19T02:37:22.673Z,61.67
2019-02-19T02:39:53.592Z,62.03
2019-02-19T02:42:24.535Z,62.73
2019-02-19T02:44:55.458Z,61.93
2019-02-19T02:47:26.394Z,58.57
2019-02-19T02:49:58.159Z,59.33
2019-02-19T02:52:29.207Z,62.83
2019-02-19T02:55:00.312Z,62.27
2019-02-19T02:57:31.241Z,61.33
2019-02-19T03:00:02.170Z,60.03
2019-02-19T03:02:33.166Z,57.87
2019-02-19T03:05:04.669Z,61.83
2019-02-19T03:07:39.982Z,58.63
2019-02-19T03:10:10.897Z,57.67
2019-02-19T03:12:41.846Z,62.90
2019-02-19T03:15:12.923Z,63.23
2019-02-19T03:17:43.940Z,64.27
2019-02-19T03:20:14.850Z,65.83
2019-02-19T03:22:45.816Z,65.27
2019-02-19T03:25:16.720Z,63.43
2019-02-19T03:27:47.655Z,63.90
2019-02-19T03:30:18.563Z,63.23
2019-02-19T03:32:49.495Z,60.60
2019-02-19T03:35:20.411Z,62.20
2019-02-19T03:37:51.361Z,58.50
2019-02-19T03:40:22.275Z,60.10
2019-02-19T03:42:53.222Z,58.23
2019-02-19T03:45:24.115Z,57.53
2019-02-19T03:47:55.052Z,56.17
2019-02-19T03:50:25.963Z,57.63
2019-02-19T03:52:57.249Z,60.90
2019-02-19T03:55:28.157Z,60.70
2019-02-19T03:57:59.100Z,56.07
2019-02-19T04:00:30.008Z,56.97
2019-02-19T04:03:00.934Z,56.70
2019-02-19T04:05:31.854Z,60.43
2019-02-19T04:08:02.852Z,61.47
2019-02-19T04:10:33.779Z,59.40
2019-02-19T04:13:04.726Z,62.47
2019-02-19T04:15:35.761Z,62.33
2019-02-19T04:18:06.711Z,60.97
2019-02-19T04:20:37.624Z,66.63
2019-02-19T04:23:08.576Z,77.50
2019-02-19T04:25:39.518Z,79.77
2019-02-19T04:28:10.464Z,82.37
2019-02-19T04:30:41.385Z,79.57
2019-02-19T04:33:12.309Z,77.33
2019-02-19T04:35:43.219Z,75.27
2019-02-19T04:38:14.208Z,78.30
2019-02-19T04:40:45.187Z,85.57
2019-02-19T04:43:16.140Z,93.93
2019-02-19T04:45:47.052Z,81.43
2019-02-19T04:48:18.002Z,77.10
2019-02-19T04:50:49.701Z,73.83
2019-02-19T04:53:20.748Z,87.30
2019-02-19T04:55:51.672Z,81.33
2019-02-19T04:58:22.679Z,99.43
2019-02-19T05:00:53.597Z,93.87
2019-02-19T05:03:24.537Z,79.00
2019-02-19T05:05:55.436Z,86.50
2019-02-19T05:08:26.476Z,95.70
2019-02-19T05:10:57.389Z,84.57
2019-02-19T05:13:28.319Z,86.90
2019-02-19T05:15:59.238Z,70.17
2019-02-19T05:18:30.187Z,61.47
2019-02-19T05:21:01.104Z,56.10
2019-02-19T05:23:32.092Z,57.27
2019-02-19T05:26:03.015Z,59.23
2019-02-19T05:28:33.941Z,63.50
2019-02-19T05:31:04.856Z,61.13
2019-02-19T05:33:35.788Z,61.83
2019-02-19T05:36:09.116Z,62.27
2019-02-19T05:38:40.284Z,62.10
2019-02-19T05:41:11.192Z,68.07
2019-02-19T05:43:42.127Z,72.67
2019-02-19T05:46:13.045Z,74.57
2019-02-19T05:48:43.985Z,83.50
2019-02-19T05:51:14.919Z,81.70
2019-02-19T05:53:45.863Z,87.10
2019-02-19T05:56:16.778Z,78.53
2019-02-19T05:58:47.785Z,78.33
2019-02-19T06:01:18.718Z,78.80
2019-02-19T06:03:49.646Z,80.10
2019-02-19T06:06:20.563Z,86.93
2019-02-19T06:08:51.530Z,93.13
2019-02-19T06:11:22.443Z,107.10
2019-02-19T06:13:53.393Z,100.97
2019-02-19T06:16:24.316Z,101.83
2019-02-19T06:18:55.513Z,117.23
2019-02-19T06:21:26.475Z,123.17
2019-02-19T06:23:57.485Z,127.13
2019-02-19T06:26:28.463Z,175.63
2019-02-19T06:28:59.338Z,156.97
2019-02-19T06:31:30.257Z,144.27
2019-02-19T06:34:01.212Z,122.80
2019-02-19T06:36:32.136Z,106.77
2019-02-19T06:39:03.113Z,87.53
2019-02-19T06:41:34.021Z,79.27
2019-02-19T06:44:04.958Z,82.03
2019-02-19T06:46:35.860Z,76.13
2019-02-19T06:49:06.806Z,78.77
2019-02-19T06:51:38.665Z,78.57
2019-02-19T06:54:09.606Z,81.37
2019-02-19T06:56:40.529Z,77.03
2019-02-19T06:59:11.448Z,86.73
2019-02-19T07:01:59.299Z,88.60
2019-02-19T07:04:31.958Z,90.13
2019-02-19T07:07:02.878Z,87.97
2019-02-19T07:09:34.190Z,80.57
2019-02-19T07:12:05.100Z,67.87
2019-02-19T07:14:36.044Z,66.20
2019-02-19T07:17:15.255Z,62.13
2019-02-19T07:19:39.591Z,57.83
2019-02-19T07:22:10.490Z,55.40
2019-02-19T07:24:41.536Z,51.53
2019-02-19T07:27:12.452Z,49.53
2019-02-19T07:29:43.375Z,48.93
2019-02-19T07:32:14.302Z,45.57
2019-02-19T07:34:45.239Z,43.07
2019-02-19T07:37:16.145Z,43.87
2019-02-19T07:39:47.111Z,41.83
2019-02-19T07:42:18.013Z,39.27
2019-02-19T07:44:48.963Z,40.53
2019-02-19T07:47:24.658Z,42.50
2019-02-19T07:49:52.478Z,43.57
2019-02-19T07:52:23.400Z,43.23
2019-02-19T07:54:54.361Z,42.15
2019-02-19T07:57:25.260Z,40.50
2019-02-19T07:59:56.977Z,40.30
2019-02-19T08:02:28.685Z,42.88
2019-02-19T08:04:59.636Z,39.50
2019-02-19T08:07:30.549Z,39.90
2019-02-19T08:10:01.535Z,39.30
2019-02-19T08:12:32.446Z,42.73
2019-02-19T08:15:03.769Z,39.38
2019-02-19T08:17:34.682Z,38.15
2019-02-19T08:20:15.354Z,38.70
2019-02-19T08:22:39.742Z,35.15
2019-02-19T08:25:10.705Z,36.90
2019-02-19T08:27:41.620Z,37.03
2019-02-19T08:30:12.553Z,34.83
2019-02-19T08:32:43.479Z,33.65
2019-02-19T08:35:14.403Z,35.23
2019-02-19T08:37:45.321Z,34.83
2019-02-19T08:40:16.311Z,33.10
2019-02-19T08:42:47.217Z,35.08
2019-02-19T08:45:18.173Z,35.38
2019-02-19T08:47:49.108Z,33.90
2019-02-19T08:50:20.174Z,33.80
2019-02-19T08:52:51.195Z,34.00
2019-02-19T08:55:22.152Z,34.23
2019-02-19T08:57:54.295Z,32.78
2019-02-19T09:00:25.463Z,33.08
2019-02-19T09:02:56.374Z,31.70
2019-02-19T09:05:27.354Z,29.42
2019-02-19T09:07:58.252Z,29.85
2019-02-19T09:10:29.374Z,31.17
2019-02-19T09:13:00.280Z,28.80
2019-02-19T09:15:31.223Z,29.52
2019-02-19T09:18:02.133Z,30.12
2019-02-19T09:20:33.145Z,30.52
2019-02-19T09:23:04.056Z,29.02
2019-02-19T09:25:35.028Z,30.48
2019-02-19T09:28:05.945Z,29.92
2019-02-19T09:30:36.882Z,29.80
2019-02-19T09:33:07.822Z,30.48
2019-02-19T09:35:38.752Z,31.95
2019-02-19T09:38:09.660Z,36.55
2019-02-19T09:40:40.627Z,34.80
2019-02-19T09:43:11.555Z,34.03
2019-02-19T09:45:42.938Z,30.17
2019-02-19T09:48:13.866Z,31.48
2019-02-19T09:50:44.807Z,29.98
2019-02-19T09:53:16.673Z,30.90
2019-02-19T09:55:47.825Z,33.88
2019-02-19T09:58:18.737Z,32.50
2019-02-19T10:00:49.670Z,30.92
2019-02-19T10:03:20.790Z,31.20
2019-02-19T10:05:51.734Z,29.42
2019-02-19T10:08:22.655Z,29.77
2019-02-19T10:10:53.613Z,60.12
2019-02-19T10:13:25.194Z,31.62
2019-02-19T10:15:56.127Z,29.98
2019-02-19T10:18:27.112Z,29.72
2019-02-19T10:20:59.730Z,30.68
2019-02-19T10:23:30.831Z,29.12
2019-02-19T10:26:01.800Z,28.92
2019-02-19T10:28:32.706Z,30.25
2019-02-19T10:31:03.650Z,26.42
2019-02-19T10:33:34.569Z,27.32
2019-02-19T10:36:05.507Z,27.73
2019-02-19T10:38:36.497Z,28.55
2019-02-19T10:41:24.740Z,31.07
2019-02-19T10:43:56.303Z,28.67
2019-02-19T10:46:27.264Z,28.02
2019-02-19T10:48:58.179Z,26.97
2019-02-19T10:51:29.118Z,30.30
2019-02-19T10:54:00.927Z,23.98
2019-02-19T10:56:31.901Z,24.37
2019-02-19T10:59:02.806Z,23.22
2019-02-19T11:01:33.982Z,24.45
2019-02-19T11:04:04.914Z,23.95
2019-02-19T11:06:35.860Z,23.85
2019-02-19T11:09:06.885Z,23.47
2019-02-19T11:11:37.838Z,25.65
2019-02-19T11:14:08.755Z,22.52
2019-02-19T11:16:39.706Z,23.75
2019-02-19T11:19:10.685Z,25.23
2019-02-19T11:21:41.622Z,21.82
2019-02-19T11:24:12.528Z,23.15
2019-02-19T11:26:43.482Z,23.05
2019-02-19T11:29:14.388Z,22.55
2019-02-19T11:31:45.328Z,23.92
2019-02-19T11:34:16.246Z,25.12
2019-02-19T11:36:47.177Z,24.02
2019-02-19T11:39:18.087Z,25.43
2019-02-19T11:41:49.051Z,23.92
2019-02-19T11:44:19.956Z,22.37
2019-02-19T11:46:50.922Z,23.05
2019-02-19T11:49:21.830Z,22.17
2019-02-19T11:51:52.768Z,23.25
2019-02-19T11:54:23.671Z,22.90
2019-02-19T11:56:54.641Z,23.92
2019-02-19T11:59:25.572Z,24.50
2019-02-19T12:01:56.603Z,23.18
2019-02-19T12:04:27.507Z,24.67
2019-02-19T12:06:58.448Z,23.62
2019-02-19T12:09:29.361Z,25.10
2019-02-19T12:12:00.319Z,26.48
2019-02-19T12:14:31.228Z,25.10
2019-02-19T12:17:02.167Z,26.50
2019-02-19T12:19:33.075Z,26.33
2019-02-19T12:22:04.015Z,28.30
2019-02-19T12:24:34.920Z,27.33
2019-02-19T12:27:08.364Z,26.95
2019-02-19T12:29:38.499Z,26.02
2019-02-19T12:32:09.462Z,25.30
2019-02-19T12:34:40.364Z,23.65
2019-02-19T12:37:11.317Z,25.88
2019-02-19T12:39:42.269Z,26.48
2019-02-19T12:42:13.284Z,25.90
2019-02-19T12:44:44.269Z,26.45
2019-02-19T12:47:15.374Z,27.33
2019-02-19T12:49:46.284Z,29.30
2019-02-19T12:52:17.228Z,29.30
2019-02-19T12:54:48.250Z,31.57
2019-02-19T12:57:19.201Z,29.47
2019-02-19T12:59:56.386Z,33.47
2019-02-19T13:02:22.733Z,31.77
2019-02-19T13:04:53.648Z,31.63
2019-02-19T13:07:24.577Z,30.53
2019-02-19T13:09:55.496Z,32.20
2019-02-19T13:12:26.446Z,28.23
2019-02-19T13:14:57.343Z,31.00
2019-02-19T13:17:28.277Z,29.83
2019-02-19T13:19:59.184Z,29.27
2019-02-19T13:22:30.124Z,28.43
2019-02-19T13:25:01.032Z,25.77
2019-02-19T13:27:32.010Z,23.03
2019-02-19T13:30:02.902Z,22.57
2019-02-19T13:32:33.836Z,22.77
2019-02-19T13:35:07.042Z,21.73
2019-02-19T13:37:37.990Z,21.70
2019-02-19T13:40:11.173Z,19.77
2019-02-19T13:42:42.164Z,16.70
2019-02-19T13:45:15.041Z,16.23
2019-02-19T13:47:45.966Z,17.07
2019-02-19T13:50:22.365Z,27.40
2019-02-19T13:53:13.216Z,32.23
2019-02-19T13:55:45.772Z,23.80
2019-02-19T13:58:16.720Z,32.83
2019-02-19T14:00:51.166Z,37.00
2019-02-19T14:03:22.080Z,28.73
2019-02-19T14:05:52.978Z,21.97
2019-02-19T14:08:23.918Z,16.57
2019-02-19T14:10:54.836Z,15.70
2019-02-19T14:13:25.769Z,18.47
2019-02-19T14:16:04.466Z,17.90
2019-02-19T14:18:52.213Z,18.60
2019-02-19T14:21:33.715Z,22.20
2019-02-19T14:24:06.280Z,20.83
2019-02-19T14:26:55.346Z,21.37
2019-02-19T14:29:28.002Z,21.93
2019-02-19T14:32:16.952Z,20.77
2019-02-19T14:34:49.514Z,21.93
2019-02-19T14:37:34.372Z,18.63
2019-02-19T14:40:11.812Z,19.73
2019-02-19T14:42:50.355Z,20.77
2019-02-19T14:45:22.942Z,22.03
2019-02-19T14:47:55.493Z,20.83
2019-02-19T14:50:40.273Z,23.10
2019-02-19T14:53:15.871Z,21.30
2019-02-19T14:56:05.440Z,21.00
2019-02-19T14:58:54.418Z,22.87
2019-02-19T15:01:43.348Z,25.10
2019-02-19T15:04:30.948Z,26.60
2019-02-19T15:07:15.706Z,24.53
2019-02-19T15:10:06.675Z,28.40
2019-02-19T15:12:55.447Z,27.03
2019-02-19T15:15:30.553Z,26.77
2019-02-19T15:18:05.878Z,29.30
2019-02-19T15:20:38.440Z,27.37
2019-02-19T15:23:11.005Z,23.23
2019-02-19T15:25:43.555Z,22.60
2019-02-19T15:28:32.528Z,20.33
2019-02-19T15:31:21.219Z,18.63
2019-02-19T15:34:09.187Z,18.77
2019-02-19T15:36:44.479Z,21.67
2019-02-19T15:39:20.015Z,18.90
2019-02-19T15:42:10.549Z,20.77
2019-02-19T15:44:59.141Z,17.73
2019-02-19T15:47:37.563Z,42.97
2019-02-19T15:50:26.640Z,42.70
2019-02-19T15:52:59.175Z,22.73
2019-02-19T15:55:34.452Z,22.77
2019-02-19T15:58:23.548Z,20.93
2019-02-19T16:01:12.364Z,20.60
2019-02-19T16:03:47.633Z,21.57
2019-02-19T16:06:29.753Z,18.70
2019-02-19T16:09:02.319Z,21.67
2019-02-19T16:11:43.861Z,17.67
2019-02-19T16:14:32.758Z,18.53
2019-02-19T16:17:08.287Z,20.50
2019-02-19T16:19:43.734Z,17.80
2019-02-19T16:22:32.500Z,21.23
2019-02-19T16:25:21.353Z,19.97
2019-02-19T16:28:05.974Z,19.07
2019-02-19T16:30:44.492Z,17.33
2019-02-19T16:33:19.767Z,18.30
2019-02-19T16:35:52.314Z,19.60
2019-02-19T16:38:28.008Z,19.45
2019-02-19T16:41:00.564Z,25.43
2019-02-19T16:43:42.052Z,17.37
2019-02-19T16:46:20.552Z,18.70
2019-02-19T16:49:02.033Z,19.23
2019-02-19T16:51:34.582Z,20.00
2019-02-19T16:54:09.934Z,15.90
2019-02-19T16:56:51.340Z,15.57
2019-02-19T16:59:27.047Z,16.97
2019-02-19T17:02:05.731Z,19.63
2019-02-19T17:04:38.318Z,21.07
2019-02-19T17:07:23.129Z,19.50
2019-02-19T17:10:10.949Z,18.40
2019-02-19T17:12:59.864Z,17.07
2019-02-19T17:15:32.434Z,18.13
2019-02-19T17:18:23.109Z,16.10
2019-02-19T17:21:11.042Z,16.00
2019-02-19T17:23:52.593Z,18.47
2019-02-19T17:26:30.932Z,20.20
2019-02-19T17:29:09.200Z,20.60
2019-02-19T17:31:44.737Z,16.97
2019-02-19T17:34:17.271Z,14.97
2019-02-19T17:36:55.828Z,16.57
2019-02-19T17:39:28.371Z,14.70
2019-02-19T17:42:00.979Z,16.37
2019-02-19T17:44:33.529Z,17.43
2019-02-19T17:47:09.067Z,17.40
2019-02-19T17:49:44.558Z,19.40
2019-02-19T17:52:26.263Z,21.27
2019-02-19T17:55:15.345Z,23.07
2019-02-19T17:57:50.979Z,21.23
2019-02-19T18:00:26.249Z,21.33
2019-02-19T18:02:58.820Z,24.70
2019-02-19T18:05:37.107Z,20.63
2019-02-19T18:08:12.374Z,21.43
2019-02-19T18:10:44.922Z,26.97
2019-02-19T18:13:29.407Z,32.60
2019-02-19T18:16:13.911Z,31.63
2019-02-19T18:18:49.845Z,29.33
2019-02-19T18:21:20.755Z,23.13
2019-02-19T18:23:51.682Z,21.40
2019-02-19T18:26:22.590Z,28.30
2019-02-19T18:28:53.547Z,23.50
2019-02-19T18:31:24.464Z,17.23
2019-02-19T18:33:55.395Z,17.33
2019-02-19T18:36:26.299Z,15.67
2019-02-19T18:38:57.241Z,12.60
2019-02-19T18:41:28.147Z,13.30
2019-02-19T18:43:59.100Z,11.83
2019-02-19T18:46:30.007Z,13.87
2019-02-19T18:49:00.954Z,15.00
2019-02-19T18:51:31.860Z,12.33
2019-02-19T18:54:02.870Z,11.73
2019-02-19T18:56:33.770Z,10.33
2019-02-19T18:59:05.076Z,11.73
2019-02-19T19:01:36.886Z,10.47
2019-02-19T19:04:07.835Z,9.47
2019-02-19T19:06:38.779Z,9.57
2019-02-19T19:09:09.701Z,12.97
2019-02-19T19:11:42.047Z,12.20
2019-02-19T19:14:13.222Z,14.40
2019-02-19T19:16:44.112Z,45.27
2019-02-19T19:19:15.039Z,21.73
2019-02-19T19:21:45.940Z,28.60
2019-02-19T19:24:16.872Z,21.90
2019-02-19T19:26:47.764Z,18.67
2019-02-19T19:29:18.719Z,15.90
2019-02-19T19:31:49.628Z,18.03
2019-02-19T19:34:20.556Z,17.70
2019-02-19T19:36:51.461Z,14.70
2019-02-19T19:39:22.391Z,14.33
2019-02-19T19:41:53.293Z,13.13
2019-02-19T19:44:24.987Z,10.70
2019-02-19T19:46:55.893Z,12.23
2019-02-19T19:49:26.836Z,11.37
2019-02-19T19:51:57.742Z,13.43
2019-02-19T19:54:28.664Z,11.17
2019-02-19T19:56:59.573Z,12.47
2019-02-19T19:59:30.554Z,13.57
2019-02-19T20:02:01.503Z,10.73
2019-02-19T20:04:32.865Z,10.07
2019-02-19T20:07:03.842Z,10.10
2019-02-19T20:09:34.860Z,10.83
2019-02-19T20:12:05.765Z,11.37
2019-02-19T20:14:36.745Z,13.00
2019-02-19T20:17:07.729Z,58.63
2019-02-19T20:19:38.770Z,51.40
2019-02-19T20:22:09.759Z,20.00
2019-02-19T20:24:40.783Z,15.97
2019-02-19T20:27:11.689Z,17.77
2019-02-19T20:29:42.715Z,23.17
2019-02-19T20:32:13.620Z,19.40
2019-02-19T20:34:44.555Z,15.97
2019-02-19T20:37:15.456Z,14.80
2019-02-19T20:39:46.753Z,18.10
2019-02-19T20:42:17.654Z,13.00
2019-02-19T20:44:48.617Z,17.87
2019-02-19T20:47:19.528Z,16.97
2019-02-19T20:49:50.460Z,15.70
2019-02-19T20:52:21.366Z,15.77
2019-02-19T20:54:52.300Z,14.03
2019-02-19T20:57:23.225Z,12.77
2019-02-19T20:59:54.233Z,14.93
2019-02-19T21:02:26.053Z,17.17
2019-02-19T21:04:57.100Z,16.60
2019-02-19T21:07:27.994Z,15.03
2019-02-19T21:09:58.923Z,22.70
2019-02-19T21:12:29.825Z,18.03
2019-02-19T21:15:01.312Z,14.33
2019-02-19T21:17:32.293Z,14.77
2019-02-19T21:20:03.491Z,15.63
2019-02-19T21:22:34.391Z,14.57
2019-02-19T21:25:07.114Z,10.60
2019-02-19T21:27:38.022Z,11.57
2019-02-19T21:30:11.880Z,10.33
2019-02-19T21:32:42.801Z,11.80
2019-02-19T21:35:13.807Z,10.67
2019-02-19T21:37:44.720Z,11.63
2019-02-19T21:40:16.501Z,11.60
2019-02-19T21:42:47.364Z,11.47
2019-02-19T21:45:18.320Z,10.17
2019-02-19T21:47:49.214Z,9.47
2019-02-19T21:50:20.201Z,10.07
2019-02-19T21:52:51.180Z,9.13
2019-02-19T21:55:22.174Z,8.50
2019-02-19T21:57:53.062Z,8.60
2019-02-19T22:00:24.248Z,8.03
2019-02-19T22:02:55.143Z,7.87
2019-02-19T22:05:26.064Z,6.90
2019-02-19T22:07:56.953Z,5.73
2019-02-19T22:10:27.883Z,7.40
2019-02-19T22:12:59.185Z,6.10
2019-02-19T22:15:30.154Z,6.27
2019-02-19T22:18:01.063Z,6.20
2019-02-19T22:20:33.710Z,6.60
2019-02-19T22:23:04.770Z,8.23
2019-02-19T22:25:35.698Z,5.47
2019-02-19T22:28:06.657Z,6.23
2019-02-19T22:30:37.612Z,6.80
2019-02-19T22:33:08.573Z,7.80
2019-02-19T22:35:39.497Z,7.27
2019-02-19T22:38:10.388Z,7.37
2019-02-19T22:40:41.346Z,7.67
2019-02-19T22:43:12.234Z,7.27
2019-02-19T22:45:43.187Z,7.23
2019-02-19T22:48:14.080Z,6.27
2019-02-19T22:50:45.032Z,7.10
2019-02-19T22:53:33.884Z,7.27
2019-02-19T22:56:06.454Z,6.73
2019-02-19T22:58:37.350Z,5.47
2019-02-19T23:01:13.135Z,6.67
2019-02-19T23:03:44.101Z,5.97
2019-02-19T23:06:15.025Z,7.57
2019-02-19T23:08:45.931Z,6.77
2019-02-19T23:11:16.865Z,6.87
2019-02-19T23:13:47.765Z,6.33
2019-02-19T23:16:18.729Z,6.33
2019-02-19T23:18:49.624Z,6.07
2019-02-19T23:21:20.540Z,5.10
2019-02-19T23:23:51.754Z,6.20
2019-02-19T23:26:22.727Z,5.50
2019-02-19T23:28:53.929Z,5.30
2019-02-19T23:31:24.915Z,5.87
2019-02-19T23:33:55.878Z,5.90
2019-02-19T23:36:28.454Z,6.10
2019-02-19T23:38:59.416Z,6.27
2019-02-19T23:41:30.430Z,5.17
2019-02-19T23:44:01.329Z,5.40
2019-02-19T23:46:32.336Z,5.20
2019-02-19T23:49:03.266Z,5.17
2019-02-19T23:51:34.177Z,4.87
2019-02-19T23:54:05.073Z,3.70
2019-02-19T23:56:35.988Z,4.87
2019-02-19T23:59:06.884Z,4.83
